createdAt,value
2019-04-22T00:00:22.548Z,0.00
2019-04-22T00:01:22.793Z,0.00
2019-04-22T00:02:17.473Z,0.00
2019-04-22T00:03:19.913Z,0.00
2019-04-22T00:04:29.817Z,0.00
2019-04-22T00:05:30.858Z,0.00
2019-04-22T00:06:40.615Z,0.00
2019-04-22T00:07:42.252Z,0.00
2019-04-22T00:08:44.627Z,0.00
2019-04-22T00:09:46.178Z,0.00
2019-04-22T00:10:48.708Z,0.00
2019-04-22T00:11:46.651Z,0.00
2019-04-22T00:12:42.369Z,0.00
2019-04-22T00:13:46.922Z,0.00
2019-04-22T00:14:36.616Z,0.00
2019-04-22T00:15:32.623Z,0.00
2019-04-22T00:16:47.023Z,0.00
2019-04-22T00:17:53.778Z,0.00
2019-04-22T00:18:59.119Z,0.00
2019-04-22T00:19:42.908Z,0.00
2019-04-22T00:20:43.891Z,0.00
2019-04-22T00:21:40.653Z,0.00
2019-04-22T00:22:38.424Z,0.00
2019-04-22T00:23:41.417Z,0.00
2019-04-22T00:24:39.060Z,0.00
2019-04-22T00:25:43.908Z,0.00
2019-04-22T00:26:45.875Z,0.00
2019-04-22T00:27:40.570Z,0.00
2019-04-22T00:28:43.729Z,0.00
2019-04-22T00:30:35.960Z,0.00
2019-04-22T00:31:40.473Z,0.00
2019-04-22T00:32:36.987Z,0.00
2019-04-22T00:33:39.426Z,0.00
2019-04-22T00:34:35.958Z,0.00
2019-04-22T00:35:38.211Z,0.00
2019-04-22T00:36:35.256Z,0.00
2019-04-22T00:37:59.686Z,0.00
2019-04-22T00:38:38.704Z,0.00
2019-04-22T00:39:42.605Z,0.00
2019-04-22T00:40:41.152Z,0.00
2019-04-22T00:41:47.387Z,0.00
2019-04-22T00:42:41.338Z,0.00
2019-04-22T00:43:39.622Z,0.00
2019-04-22T00:44:38.812Z,0.00
2019-04-22T00:45:40.064Z,0.00
2019-04-22T00:46:39.923Z,0.00
2019-04-22T00:47:50.729Z,0.00
2019-04-22T00:49:30.470Z,0.00
2019-04-22T00:50:06.333Z,0.00
2019-04-22T00:50:37.433Z,0.00
2019-04-22T00:51:44.856Z,0.00
2019-04-22T00:54:43.924Z,0.00
2019-04-22T00:55:40.418Z,0.00
2019-04-22T00:56:35.634Z,0.00
2019-04-22T00:57:32.373Z,0.00
2019-04-22T00:58:37.874Z,0.00
2019-04-22T00:59:40.443Z,0.00
2019-04-22T01:00:40.150Z,0.00
2019-04-22T01:01:37.007Z,0.00
2019-04-22T01:02:45.664Z,0.00
2019-04-22T01:03:47.489Z,0.00
2019-04-22T01:04:39.329Z,0.00
2019-04-22T01:05:47.109Z,0.00
2019-04-22T01:06:33.322Z,0.00
2019-04-22T01:07:38.901Z,0.00
2019-04-22T01:08:40.975Z,0.00
2019-04-22T01:09:38.895Z,0.00
2019-04-22T01:10:40.313Z,0.00
2019-04-22T01:11:33.825Z,0.00
2019-04-22T01:12:39.618Z,0.00
2019-04-22T01:13:30.560Z,0.00
2019-04-22T01:14:37.241Z,0.00
2019-04-22T01:15:40.574Z,0.00
2019-04-22T01:16:40.773Z,0.00
2019-04-22T01:17:32.903Z,0.00
2019-04-22T01:18:37.323Z,0.00
2019-04-22T01:19:39.042Z,0.00
2019-04-22T01:21:40.869Z,0.00
2019-04-22T01:22:34.309Z,0.00
2019-04-22T01:23:30.710Z,0.00
2019-04-22T01:24:32.378Z,0.00
2019-04-22T01:25:31.373Z,0.00
2019-04-22T01:26:33.077Z,0.00
2019-04-22T01:27:26.618Z,0.00
2019-04-22T01:28:23.822Z,0.00
2019-04-22T01:29:22.798Z,0.00
2019-04-22T01:30:21.041Z,0.00
2019-04-22T01:31:17.198Z,0.00
2019-04-22T01:32:17.561Z,0.00
2019-04-22T01:33:16.291Z,0.00
2019-04-22T01:34:23.351Z,0.00
2019-04-22T01:35:27.549Z,0.00
2019-04-22T01:36:32.946Z,0.00
2019-04-22T01:37:32.382Z,0.00
2019-04-22T01:38:31.577Z,0.00
2019-04-22T01:39:37.629Z,0.00
2019-04-22T01:40:39.067Z,0.00
2019-04-22T01:41:41.785Z,0.00
2019-04-22T01:42:47.346Z,0.00
2019-04-22T01:43:42.622Z,0.00
2019-04-22T01:44:36.805Z,0.00
2019-04-22T01:45:34.669Z,0.00
2019-04-22T01:46:39.611Z,0.00
2019-04-22T01:47:38.806Z,0.00
2019-04-22T01:48:33.034Z,0.00
2019-04-22T01:49:33.551Z,0.00
2019-04-22T01:50:31.755Z,0.00
2019-04-22T01:51:50.024Z,0.00
2019-04-22T01:52:32.642Z,0.00
2019-04-22T01:53:35.500Z,0.00
2019-04-22T01:54:43.297Z,0.00
2019-04-22T01:56:38.976Z,0.00
2019-04-22T01:57:28.845Z,0.00
2019-04-22T01:58:31.096Z,0.00
2019-04-22T01:59:26.878Z,0.00
2019-04-22T02:00:35.903Z,0.00
2019-04-22T02:01:41.471Z,0.00
2019-04-22T02:02:39.962Z,0.00
2019-04-22T02:03:34.263Z,0.00
2019-04-22T02:04:38.195Z,0.00
2019-04-22T02:05:31.460Z,0.00
2019-04-22T02:06:34.670Z,0.00
2019-04-22T02:08:42.681Z,0.00
2019-04-22T02:11:39.122Z,0.00
2019-04-22T02:12:33.393Z,0.00
2019-04-22T02:13:37.536Z,0.00
2019-04-22T02:14:37.464Z,0.00
2019-04-22T02:15:32.894Z,0.00
2019-04-22T02:16:34.234Z,0.00
2019-04-22T02:18:39.386Z,0.00
2019-04-22T02:19:37.166Z,0.00
2019-04-22T02:20:31.117Z,0.00
2019-04-22T02:21:31.505Z,0.00
2019-04-22T02:22:38.063Z,0.00
2019-04-22T02:24:35.955Z,0.00
2019-04-22T02:25:32.568Z,0.00
2019-04-22T02:26:38.299Z,0.00
2019-04-22T02:27:39.011Z,0.00
2019-04-22T02:28:38.529Z,0.00
2019-04-22T02:29:42.407Z,0.00
2019-04-22T02:30:46.943Z,0.00
2019-04-22T02:32:59.077Z,0.00
2019-04-22T02:34:07.919Z,0.00
2019-04-22T02:35:48.596Z,0.00
2019-04-22T02:37:30.472Z,0.00
2019-04-22T02:39:36.203Z,0.00
2019-04-22T02:40:46.273Z,0.00
2019-04-22T02:42:23.554Z,0.00
2019-04-22T02:44:46.677Z,0.00
2019-04-22T02:45:46.920Z,0.00
2019-04-22T02:46:44.986Z,0.00
2019-04-22T02:47:34.278Z,0.00
2019-04-22T02:48:53.419Z,0.00
2019-04-22T02:49:45.091Z,0.00
2019-04-22T02:50:28.534Z,0.00
2019-04-22T02:51:27.876Z,0.00
2019-04-22T02:52:37.628Z,0.00
2019-04-22T02:55:32.389Z,0.00
2019-04-22T02:56:31.807Z,0.00
2019-04-22T02:58:52.688Z,0.00
2019-04-22T02:59:34.471Z,0.00
2019-04-22T03:03:52.706Z,0.00
2019-04-22T03:04:24.259Z,0.00
2019-04-22T03:05:37.083Z,0.00
2019-04-22T03:07:38.057Z,0.00
2019-04-22T03:09:33.697Z,0.00
2019-04-22T03:12:41.721Z,0.00
2019-04-22T03:13:40.331Z,0.00
2019-04-22T03:14:30.372Z,0.00
2019-04-22T03:15:30.034Z,0.00
2019-04-22T03:18:38.285Z,0.00
2019-04-22T03:19:48.190Z,0.00
2019-04-22T03:20:29.225Z,0.00
2019-04-22T03:21:31.307Z,0.00
2019-04-22T03:22:27.981Z,4.00
2019-04-22T03:26:33.899Z,4.00
2019-04-22T03:27:31.797Z,4.00
2019-04-22T03:28:41.143Z,4.00
2019-04-22T03:29:28.759Z,4.00
2019-04-22T03:32:52.445Z,8.00
2019-04-22T03:33:44.220Z,8.00
2019-04-22T03:37:06.606Z,16.00
2019-04-22T03:37:32.365Z,20.00
2019-04-22T03:38:41.849Z,20.00
2019-04-22T03:42:00.584Z,32.00
2019-04-22T03:42:21.482Z,36.00
2019-04-22T03:43:38.080Z,40.00
2019-04-22T03:46:30.476Z,60.00
2019-04-22T03:48:33.110Z,80.00
2019-04-22T03:49:37.088Z,88.00
2019-04-22T03:52:20.796Z,116.00
2019-04-22T03:53:33.502Z,128.00
2019-04-22T03:57:40.574Z,180.00
2019-04-22T03:58:28.473Z,192.00
2019-04-22T03:59:39.990Z,204.00
2019-04-22T04:00:36.012Z,220.00
2019-04-22T04:01:36.540Z,240.00
2019-04-22T04:03:57.779Z,276.00
2019-04-22T04:05:41.619Z,316.00
2019-04-22T04:06:43.215Z,336.00
2019-04-22T04:07:44.916Z,356.00
2019-04-22T04:09:33.762Z,396.00
2019-04-22T04:10:37.762Z,420.00
2019-04-22T04:11:32.118Z,440.00
2019-04-22T04:12:25.982Z,460.00
2019-04-22T04:13:29.985Z,484.00
2019-04-22T04:14:47.221Z,508.00
2019-04-22T04:16:30.371Z,560.00
2019-04-22T04:17:28.921Z,596.00
2019-04-22T04:18:30.739Z,628.00
2019-04-22T04:19:34.898Z,668.00
2019-04-22T04:20:32.476Z,708.00
2019-04-22T04:22:50.342Z,784.00
2019-04-22T04:24:44.019Z,840.00
2019-04-22T04:26:48.142Z,876.00
2019-04-22T04:27:43.759Z,896.00
2019-04-22T04:28:39.963Z,916.00
2019-04-22T04:30:30.313Z,984.00
2019-04-22T04:31:37.882Z,1048.00
2019-04-22T04:32:39.421Z,1096.00
2019-04-22T04:33:36.028Z,1136.00
2019-04-22T04:34:48.201Z,1152.00
2019-04-22T04:35:32.274Z,1160.00
2019-04-22T04:36:32.233Z,1180.00
2019-04-22T04:37:42.434Z,1200.00
2019-04-22T04:38:26.307Z,1224.00
2019-04-22T04:39:26.582Z,1260.00
2019-04-22T04:40:26.942Z,1320.00
2019-04-22T04:41:43.340Z,1396.00
2019-04-22T04:43:17.376Z,1532.00
2019-04-22T04:44:43.647Z,1532.00
2019-04-22T04:46:36.195Z,1556.00
2019-04-22T04:48:34.413Z,1592.00
2019-04-22T04:49:44.966Z,1600.00
2019-04-22T04:50:18.593Z,1604.00
2019-04-22T04:51:38.494Z,1592.00
2019-04-22T04:54:31.741Z,1624.00
2019-04-22T04:55:28.899Z,1656.00
2019-04-22T04:56:30.410Z,1696.00
2019-04-22T04:58:36.914Z,1768.00
2019-04-22T05:02:32.354Z,1860.00
2019-04-22T05:03:33.032Z,1892.00
2019-04-22T05:06:42.731Z,2068.00
2019-04-22T05:07:27.875Z,2180.00
2019-04-22T05:08:39.124Z,2232.00
2019-04-22T05:09:21.437Z,2168.00
2019-04-22T05:10:34.858Z,2088.00
2019-04-22T05:11:29.280Z,2052.00
2019-04-22T05:13:35.316Z,2112.00
2019-04-22T05:14:24.289Z,2212.00
2019-04-22T05:18:23.945Z,2420.00
2019-04-22T05:19:22.579Z,2464.00
2019-04-22T05:20:33.842Z,2484.00
2019-04-22T05:21:18.326Z,2364.00
2019-04-22T05:22:26.252Z,2288.00
2019-04-22T05:23:28.831Z,2340.00
2019-04-22T05:24:25.701Z,2352.00
2019-04-22T05:25:19.580Z,2568.00
2019-04-22T05:26:26.081Z,2592.00
2019-04-22T05:27:21.988Z,2640.00
2019-04-22T05:28:15.213Z,2560.00
2019-04-22T05:29:22.078Z,2508.00
2019-04-22T05:31:22.421Z,2520.00
2019-04-22T05:32:19.632Z,2712.00
2019-04-22T05:33:14.268Z,2896.00
2019-04-22T05:34:19.564Z,2660.00
2019-04-22T05:35:14.393Z,2360.00
2019-04-22T05:36:13.006Z,2324.00
2019-04-22T05:37:14.757Z,2448.00
2019-04-22T05:38:25.964Z,2576.00
2019-04-22T05:39:31.030Z,2628.00
2019-04-22T05:40:20.107Z,2860.00
2019-04-22T05:41:17.773Z,2540.00
2019-04-22T05:42:16.351Z,2420.00
2019-04-22T05:43:16.265Z,2668.00
2019-04-22T05:44:14.482Z,2712.00
2019-04-22T05:45:17.862Z,2476.00
2019-04-22T05:46:09.462Z,2444.00
2019-04-22T05:47:14.793Z,2404.00
2019-04-22T05:48:10.954Z,2444.00
2019-04-22T05:49:19.312Z,2432.00
2019-04-22T05:50:13.227Z,2468.00
2019-04-22T05:51:21.160Z,2480.00
2019-04-22T05:52:14.754Z,2492.00
2019-04-22T05:53:11.586Z,2500.00
2019-04-22T05:54:14.511Z,2500.00
2019-04-22T05:55:14.426Z,2492.00
2019-04-22T05:56:23.820Z,2488.00
2019-04-22T05:57:14.573Z,2496.00
2019-04-22T05:58:33.902Z,2500.00
2019-04-22T05:59:14.707Z,2512.00
2019-04-22T06:00:14.637Z,2520.00
2019-04-22T06:03:10.186Z,2524.00
2019-04-22T06:04:11.397Z,2536.00
2019-04-22T06:05:14.938Z,2544.00
2019-04-22T06:06:15.132Z,2548.00
2019-04-22T06:07:06.420Z,2544.00
2019-04-22T06:08:10.625Z,2544.00
2019-04-22T06:09:10.442Z,2544.00
2019-04-22T06:10:22.641Z,2556.00
2019-04-22T06:11:16.879Z,2572.00
2019-04-22T06:12:04.927Z,2600.00
2019-04-22T06:13:05.648Z,2792.00
2019-04-22T06:14:07.883Z,2892.00
2019-04-22T06:15:15.750Z,2796.00
2019-04-22T06:16:16.202Z,2788.00
2019-04-22T06:17:11.063Z,2836.00
2019-04-22T06:19:14.001Z,2856.00
2019-04-22T06:20:11.384Z,2688.00
2019-04-22T06:21:11.274Z,3048.00
2019-04-22T06:22:12.859Z,3584.00
2019-04-22T06:23:15.905Z,3892.00
2019-04-22T06:24:16.725Z,3964.00
2019-04-22T06:28:26.345Z,3008.00
2019-04-22T06:31:18.185Z,2888.00
2019-04-22T06:33:19.186Z,3084.00
2019-04-22T06:35:16.427Z,3408.00
2019-04-22T06:36:08.833Z,3124.00
2019-04-22T06:37:20.562Z,3284.00
2019-04-22T06:38:24.408Z,4000.00
2019-04-22T06:39:14.753Z,4244.00
2019-04-22T06:40:16.841Z,3680.00
2019-04-22T06:41:16.841Z,3576.00
2019-04-22T06:42:28.772Z,3384.00
2019-04-22T06:43:10.410Z,3516.00
2019-04-22T06:44:14.405Z,3520.00
2019-04-22T06:45:15.573Z,3712.00
2019-04-22T06:46:13.049Z,3788.00
2019-04-22T06:47:39.884Z,3908.00
2019-04-22T06:48:12.690Z,3616.00
2019-04-22T06:49:11.124Z,3568.00
2019-04-22T06:50:07.736Z,3664.00
2019-04-22T06:51:09.425Z,3804.00
2019-04-22T06:52:16.940Z,4828.00
2019-04-22T06:53:09.291Z,4836.00
2019-04-22T06:54:10.720Z,4484.00
2019-04-22T06:55:09.082Z,4156.00
2019-04-22T06:56:06.030Z,4000.00
2019-04-22T06:57:06.269Z,4060.00
2019-04-22T06:58:08.718Z,4080.00
2019-04-22T06:59:06.879Z,4100.00
2019-04-22T07:00:14.265Z,4504.00
2019-04-22T07:01:09.575Z,4256.00
2019-04-22T07:02:12.364Z,4940.00
2019-04-22T07:04:08.082Z,4800.00
2019-04-22T07:05:08.245Z,5208.00
2019-04-22T07:06:07.398Z,5080.00
2019-04-22T07:07:06.671Z,4784.00
2019-04-22T07:08:16.316Z,4640.00
2019-04-22T07:10:19.252Z,4704.00
2019-04-22T07:11:04.638Z,5008.00
2019-04-22T07:12:06.441Z,5692.00
2019-04-22T07:13:10.742Z,6068.00
2019-04-22T07:14:07.189Z,6040.00
2019-04-22T07:15:11.126Z,5364.00
2019-04-22T07:16:05.134Z,5404.00
2019-04-22T07:17:02.142Z,5128.00
2019-04-22T07:18:11.494Z,5412.00
2019-04-22T07:19:09.475Z,5472.00
2019-04-22T07:20:04.275Z,5432.00
2019-04-22T07:23:08.447Z,6468.00
2019-04-22T07:24:22.802Z,8104.00
2019-04-22T07:25:06.535Z,7816.00
2019-04-22T07:26:04.665Z,7736.00
2019-04-22T07:27:08.917Z,7224.00
2019-04-22T07:28:05.642Z,7396.00
2019-04-22T07:29:06.459Z,6652.00
2019-04-22T07:30:09.310Z,7744.00
2019-04-22T07:31:04.028Z,7672.00
2019-04-22T07:32:29.757Z,7672.00
2019-04-22T07:34:08.067Z,7772.00
2019-04-22T07:35:08.411Z,7696.00
2019-04-22T07:36:30.700Z,6832.00
2019-04-22T07:37:20.008Z,7564.00
2019-04-22T07:38:12.492Z,7468.00
2019-04-22T07:39:05.728Z,7316.00
2019-04-22T07:40:06.895Z,7152.00
2019-04-22T07:41:00.536Z,7072.00
2019-04-22T07:42:06.849Z,6988.00
2019-04-22T07:43:05.459Z,6920.00
2019-04-22T07:45:06.660Z,6868.00
2019-04-22T07:46:05.137Z,6824.00
2019-04-22T07:48:17.384Z,6784.00
2019-04-22T07:49:06.636Z,6752.00
2019-04-22T07:50:08.427Z,6776.00
2019-04-22T07:52:03.391Z,6800.00
2019-04-22T07:52:51.454Z,6824.00
2019-04-22T07:54:01.712Z,6832.00
2019-04-22T07:55:11.686Z,6868.00
2019-04-22T07:56:05.372Z,6888.00
2019-04-22T07:57:12.080Z,6912.00
2019-04-22T07:58:08.180Z,6952.00
2019-04-22T07:59:07.369Z,6940.00
2019-04-22T08:00:10.961Z,6968.00
2019-04-22T08:01:05.336Z,6988.00
2019-04-22T08:02:01.943Z,7016.00
2019-04-22T08:03:09.305Z,7056.00
2019-04-22T08:04:15.225Z,7064.00
2019-04-22T08:06:17.545Z,7124.00
2019-04-22T08:07:10.718Z,7212.00
2019-04-22T08:08:06.961Z,7416.00
2019-04-22T08:09:07.986Z,8812.00
2019-04-22T08:10:08.469Z,10780.00
2019-04-22T08:11:08.684Z,11776.00
2019-04-22T08:11:58.806Z,12936.00
2019-04-22T08:12:59.349Z,14264.00
2019-04-22T08:14:00.302Z,16412.00
2019-04-22T08:15:01.957Z,18144.00
2019-04-22T08:16:04.519Z,17792.00
2019-04-22T08:17:14.190Z,17824.00
2019-04-22T08:18:01.581Z,17792.00
2019-04-22T08:19:03.022Z,19264.00
2019-04-22T08:20:02.788Z,20448.00
2019-04-22T08:20:58.928Z,18720.00
2019-04-22T08:22:05.952Z,16740.00
2019-04-22T08:23:06.831Z,17504.00
2019-04-22T08:24:02.745Z,18880.00
2019-04-22T08:25:02.700Z,18624.00
2019-04-22T08:26:17.254Z,17856.00
2019-04-22T08:27:01.176Z,18368.00
2019-04-22T08:28:05.768Z,17664.00
2019-04-22T08:29:12.393Z,17408.00
2019-04-22T08:30:11.746Z,19328.00
2019-04-22T08:31:01.927Z,18720.00
2019-04-22T08:32:01.157Z,17344.00
2019-04-22T08:33:00.753Z,17856.00
2019-04-22T08:34:01.772Z,17024.00
2019-04-22T08:34:47.216Z,14924.00
2019-04-22T08:37:35.658Z,11856.00
2019-04-22T08:38:07.679Z,11628.00
2019-04-22T08:39:08.221Z,12272.00
2019-04-22T08:40:09.621Z,12256.00
2019-04-22T08:41:10.859Z,12572.00
2019-04-22T08:42:09.597Z,12336.00
2019-04-22T08:43:05.538Z,11732.00
2019-04-22T08:44:05.435Z,11412.00
2019-04-22T08:46:01.683Z,11128.00
2019-04-22T08:47:04.701Z,10980.00
2019-04-22T08:47:57.679Z,11188.00
2019-04-22T08:49:00.748Z,10952.00
2019-04-22T08:50:05.988Z,10876.00
2019-04-22T08:51:00.794Z,10296.00
2019-04-22T08:52:01.433Z,8212.00
2019-04-22T08:53:06.206Z,7332.00
2019-04-22T08:54:09.928Z,7140.00
2019-04-22T08:55:07.766Z,7128.00
2019-04-22T08:56:07.724Z,7124.00
2019-04-22T08:56:58.409Z,7228.00
2019-04-22T08:58:16.735Z,7392.00
2019-04-22T08:59:01.799Z,7736.00
2019-04-22T09:01:05.293Z,8420.00
2019-04-22T09:01:59.345Z,8584.00
2019-04-22T09:02:53.953Z,8632.00
2019-04-22T09:03:58.409Z,8700.00
2019-04-22T09:04:53.785Z,8788.00
2019-04-22T09:07:12.391Z,8816.00
2019-04-22T09:08:05.375Z,8892.00
2019-04-22T09:09:00.904Z,9040.00
2019-04-22T09:09:55.678Z,9156.00
2019-04-22T09:10:58.530Z,9280.00
2019-04-22T09:12:14.550Z,9380.00
2019-04-22T09:13:03.644Z,9588.00
2019-04-22T09:14:49.410Z,9752.00
2019-04-22T09:15:58.982Z,9900.00
2019-04-22T09:16:55.853Z,9960.00
2019-04-22T09:18:06.732Z,9524.00
2019-04-22T09:21:07.120Z,5432.00
2019-04-22T09:22:00.510Z,5500.00
2019-04-22T09:23:03.976Z,5132.00
2019-04-22T09:23:58.423Z,5104.00
2019-04-22T09:24:55.207Z,9656.00
2019-04-22T09:25:56.969Z,10188.00
2019-04-22T09:26:53.935Z,12144.00
2019-04-22T09:27:57.811Z,12444.00
2019-04-22T09:28:59.565Z,13188.00
2019-04-22T09:30:13.123Z,13440.00
2019-04-22T09:30:56.898Z,13072.00
2019-04-22T09:32:02.074Z,12604.00
2019-04-22T09:33:02.880Z,11284.00
2019-04-22T09:33:53.206Z,12508.00
2019-04-22T09:34:51.750Z,12640.00
2019-04-22T09:36:00.125Z,12976.00
2019-04-22T09:36:59.461Z,13420.00
2019-04-22T09:38:52.704Z,7496.00
2019-04-22T09:40:03.289Z,4288.00
2019-04-22T09:40:52.654Z,4188.00
2019-04-22T09:41:58.729Z,6416.00
2019-04-22T09:42:56.117Z,4512.00
2019-04-22T09:43:56.617Z,14100.00
2019-04-22T09:44:55.490Z,4048.00
2019-04-22T09:45:53.137Z,3724.00
2019-04-22T09:46:53.728Z,3816.00
2019-04-22T09:49:03.483Z,5344.00
2019-04-22T09:50:12.642Z,4708.00
2019-04-22T09:50:56.714Z,6232.00
2019-04-22T09:52:01.384Z,7072.00
2019-04-22T09:52:57.693Z,7108.00
2019-04-22T09:54:02.377Z,5520.00
2019-04-22T09:55:00.271Z,5588.00
2019-04-22T09:55:56.818Z,3748.00
2019-04-22T09:57:08.991Z,3688.00
2019-04-22T09:57:51.029Z,3624.00
2019-04-22T09:59:57.731Z,3648.00
2019-04-22T10:01:03.061Z,3628.00
2019-04-22T10:02:11.412Z,3604.00
2019-04-22T10:03:00.902Z,3620.00
2019-04-22T10:04:00.933Z,3648.00
2019-04-22T10:04:58.284Z,3664.00
2019-04-22T10:06:01.017Z,3680.00
2019-04-22T10:06:45.659Z,3700.00
2019-04-22T10:07:56.125Z,3708.00
2019-04-22T10:11:00.723Z,3740.00
2019-04-22T10:11:50.604Z,3756.00
2019-04-22T10:12:57.507Z,3828.00
2019-04-22T10:13:54.094Z,3816.00
2019-04-22T10:15:54.415Z,3880.00
2019-04-22T10:16:51.813Z,3928.00
2019-04-22T10:17:52.229Z,4052.00
2019-04-22T10:18:52.038Z,3920.00
2019-04-22T10:19:53.332Z,4036.00
2019-04-22T10:20:54.140Z,4036.00
2019-04-22T10:23:02.251Z,4052.00
2019-04-22T10:23:50.636Z,4072.00
2019-04-22T10:24:53.569Z,4064.00
2019-04-22T10:25:55.362Z,4080.00
2019-04-22T10:26:54.963Z,4064.00
2019-04-22T10:27:55.230Z,4052.00
2019-04-22T10:28:52.508Z,4036.00
2019-04-22T10:29:54.070Z,4056.00
2019-04-22T10:31:52.690Z,5040.00
2019-04-22T10:32:47.558Z,7484.00
2019-04-22T10:33:42.190Z,7344.00
2019-04-22T10:34:36.021Z,9496.00
2019-04-22T10:35:28.725Z,9452.00
2019-04-22T10:36:25.656Z,6964.00
2019-04-22T10:37:25.671Z,7492.00
2019-04-22T10:38:26.482Z,5612.00
2019-04-22T10:39:36.756Z,6956.00
2019-04-22T10:40:25.706Z,4116.00
2019-04-22T10:41:26.252Z,6512.00
2019-04-22T10:42:25.111Z,4668.00
2019-04-22T10:43:25.311Z,5360.00
2019-04-22T10:44:24.904Z,11312.00
2019-04-22T10:45:25.973Z,13188.00
2019-04-22T10:46:26.261Z,13408.00
2019-04-22T10:47:25.756Z,9232.00
2019-04-22T10:48:26.082Z,6440.00
2019-04-22T10:49:24.622Z,7268.00
2019-04-22T10:50:24.700Z,11048.00
2019-04-22T10:51:24.426Z,11292.00
2019-04-22T10:52:25.547Z,18656.00
2019-04-22T10:53:25.646Z,15364.00
2019-04-22T10:54:25.250Z,8492.00
2019-04-22T10:55:25.399Z,28928.00
2019-04-22T10:56:25.160Z,4788.00
2019-04-22T10:57:23.892Z,7176.00
2019-04-22T10:58:24.857Z,6964.00
2019-04-22T10:59:24.698Z,6500.00
2019-04-22T11:00:23.780Z,9264.00
2019-04-22T11:01:23.592Z,32576.00
2019-04-22T11:02:23.505Z,41024.00
2019-04-22T11:03:24.533Z,61248.00
2019-04-22T11:04:23.356Z,61952.00
2019-04-22T11:05:24.078Z,58400.00
2019-04-22T11:06:23.387Z,54784.00
2019-04-22T11:07:32.546Z,52640.00
2019-04-22T11:08:31.543Z,52384.00
2019-04-22T11:09:23.870Z,52032.00
2019-04-22T11:10:41.211Z,50816.00
2019-04-22T11:11:34.727Z,50272.00
2019-04-22T11:12:26.532Z,49120.00
2019-04-22T11:13:24.138Z,47296.00
2019-04-22T11:14:23.170Z,45760.00
2019-04-22T11:15:22.549Z,46400.00
2019-04-22T11:16:23.388Z,47232.00
2019-04-22T11:17:23.865Z,47552.00
2019-04-22T11:18:23.243Z,47168.00
2019-04-22T11:19:23.466Z,46912.00
2019-04-22T11:20:22.189Z,46720.00
2019-04-22T11:21:23.237Z,46848.00
2019-04-22T11:22:26.343Z,46656.00
2019-04-22T11:23:22.653Z,45632.00
2019-04-22T11:24:22.950Z,44800.00
2019-04-22T11:25:21.820Z,44448.00
2019-04-22T11:26:21.966Z,43776.00
2019-04-22T11:27:23.188Z,43104.00
2019-04-22T11:28:21.624Z,41952.00
2019-04-22T11:29:21.545Z,41312.00
2019-04-22T11:30:24.325Z,40672.00
2019-04-22T11:31:21.408Z,39648.00
2019-04-22T11:32:22.297Z,39648.00
2019-04-22T11:33:22.479Z,39520.00
2019-04-22T11:34:21.381Z,38752.00
2019-04-22T11:35:21.895Z,37376.00
2019-04-22T11:36:21.787Z,36288.00
2019-04-22T11:37:20.971Z,35264.00
2019-04-22T11:38:20.910Z,34560.00
2019-04-22T11:39:21.761Z,34368.00
2019-04-22T11:40:31.662Z,34400.00
2019-04-22T11:41:21.593Z,33632.00
2019-04-22T11:42:20.622Z,33184.00
2019-04-22T11:43:21.833Z,32768.00
2019-04-22T11:44:21.365Z,32192.00
2019-04-22T11:45:21.436Z,31520.00
2019-04-22T11:46:21.063Z,30688.00
2019-04-22T11:47:21.293Z,30048.00
2019-04-22T11:48:21.367Z,30400.00
2019-04-22T11:49:21.664Z,30688.00
2019-04-22T11:50:20.060Z,30656.00
2019-04-22T11:51:20.126Z,29984.00
2019-04-22T11:52:20.500Z,29312.00
2019-04-22T11:53:20.696Z,29280.00
2019-04-22T11:54:20.900Z,28864.00
2019-04-22T11:55:19.714Z,28352.00
2019-04-22T11:56:20.709Z,27808.00
2019-04-22T11:57:21.065Z,27776.00
2019-04-22T11:58:21.056Z,27232.00
2019-04-22T11:59:20.409Z,25984.00
2019-04-22T12:00:20.826Z,24704.00
2019-04-22T12:01:19.340Z,24512.00
2019-04-22T12:02:20.030Z,24224.00
2019-04-22T12:03:19.149Z,24192.00
2019-04-22T12:04:20.110Z,23552.00
2019-04-22T12:05:19.648Z,22816.00
2019-04-22T12:06:19.860Z,22336.00
2019-04-22T12:07:19.062Z,22208.00
2019-04-22T12:08:18.808Z,21760.00
2019-04-22T12:09:19.517Z,21088.00
2019-04-22T12:10:30.921Z,20640.00
2019-04-22T12:11:18.677Z,20576.00
2019-04-22T12:12:18.513Z,20448.00
2019-04-22T12:13:19.613Z,20288.00
2019-04-22T12:14:18.376Z,19936.00
2019-04-22T12:15:19.075Z,19840.00
2019-04-22T12:16:19.177Z,19552.00
2019-04-22T12:17:18.269Z,19392.00
2019-04-22T12:18:19.353Z,19264.00
2019-04-22T12:19:19.023Z,19328.00
2019-04-22T12:20:18.421Z,19424.00
2019-04-22T12:21:19.261Z,19776.00
2019-04-22T12:22:17.804Z,20000.00
2019-04-22T12:23:18.881Z,19744.00
2019-04-22T12:24:17.665Z,19520.00
2019-04-22T12:25:29.979Z,19456.00
2019-04-22T12:26:19.198Z,19392.00
2019-04-22T12:27:18.772Z,19456.00
2019-04-22T12:28:17.379Z,19424.00
2019-04-22T12:29:17.322Z,19424.00
2019-04-22T12:30:17.239Z,19328.00
2019-04-22T12:31:17.649Z,19360.00
2019-04-22T12:32:17.772Z,19520.00
2019-04-22T12:33:17.079Z,19328.00
2019-04-22T12:34:17.293Z,19328.00
2019-04-22T12:35:17.759Z,18944.00
2019-04-22T12:36:18.118Z,18784.00
2019-04-22T12:37:25.778Z,18880.00
2019-04-22T12:38:18.319Z,19008.00
2019-04-22T12:39:17.713Z,19008.00
2019-04-22T12:40:27.033Z,18432.00
2019-04-22T12:41:17.836Z,18144.00
2019-04-22T12:42:17.445Z,18016.00
2019-04-22T12:43:18.527Z,17952.00
2019-04-22T12:44:16.241Z,18208.00
2019-04-22T12:45:16.251Z,18208.00
2019-04-22T12:46:16.372Z,18048.00
2019-04-22T12:47:16.031Z,18016.00
2019-04-22T12:48:16.994Z,18048.00
2019-04-22T12:49:16.320Z,18368.00
2019-04-22T12:50:22.396Z,18560.00
2019-04-22T12:51:15.745Z,18816.00
2019-04-22T12:52:24.481Z,19168.00
2019-04-22T12:53:18.805Z,18848.00
2019-04-22T12:54:17.012Z,18336.00
2019-04-22T12:55:17.276Z,17696.00
2019-04-22T12:56:15.492Z,17504.00
2019-04-22T12:57:16.696Z,17728.00
2019-04-22T12:58:15.788Z,17024.00
2019-04-22T12:59:15.167Z,16876.00
2019-04-22T13:00:15.640Z,17100.00
2019-04-22T13:01:15.193Z,16812.00
2019-04-22T13:02:15.493Z,16636.00
2019-04-22T13:03:15.826Z,16696.00
2019-04-22T13:04:17.598Z,16560.00
2019-04-22T13:05:15.957Z,16332.00
2019-04-22T13:06:14.667Z,16368.00
2019-04-22T13:07:15.653Z,16508.00
2019-04-22T13:08:15.719Z,16508.00
2019-04-22T13:09:14.844Z,16640.00
2019-04-22T13:10:15.556Z,16504.00
2019-04-22T13:11:17.659Z,16364.00
2019-04-22T13:12:15.170Z,16320.00
2019-04-22T13:13:15.326Z,16168.00
2019-04-22T13:14:14.982Z,16296.00
2019-04-22T13:15:14.169Z,16268.00
2019-04-22T13:16:15.258Z,16204.00
2019-04-22T13:17:15.324Z,16000.00
2019-04-22T13:18:26.158Z,15684.00
2019-04-22T13:19:17.025Z,15580.00
2019-04-22T13:20:16.478Z,15524.00
2019-04-22T13:21:14.882Z,15504.00
2019-04-22T13:22:14.632Z,15360.00
2019-04-22T13:23:13.839Z,15204.00
2019-04-22T13:24:13.480Z,15188.00
2019-04-22T13:25:13.308Z,15044.00
2019-04-22T13:26:14.972Z,15144.00
2019-04-22T13:27:13.181Z,15040.00
2019-04-22T13:28:13.314Z,14992.00
2019-04-22T13:29:13.032Z,14840.00
2019-04-22T13:30:14.373Z,14964.00
2019-04-22T13:31:13.873Z,14636.00
2019-04-22T13:32:13.155Z,14056.00
2019-04-22T13:33:12.748Z,11620.00
2019-04-22T13:34:23.938Z,6240.00
2019-04-22T13:35:12.836Z,3784.00
2019-04-22T13:36:12.533Z,3516.00
2019-04-22T13:37:12.857Z,3524.00
2019-04-22T13:38:12.941Z,3508.00
2019-04-22T13:39:13.276Z,3428.00
2019-04-22T13:40:12.826Z,3360.00
2019-04-22T13:41:26.755Z,3360.00
2019-04-22T13:42:15.428Z,3396.00
2019-04-22T13:43:13.178Z,3436.00
2019-04-22T13:44:12.757Z,3428.00
2019-04-22T13:45:11.897Z,3368.00
2019-04-22T13:46:12.461Z,3384.00
2019-04-22T13:47:28.404Z,3396.00
2019-04-22T13:48:29.742Z,3376.00
2019-04-22T13:49:47.792Z,3352.00
2019-04-22T13:50:49.969Z,3336.00
2019-04-22T13:53:23.853Z,3288.00
2019-04-22T13:53:44.734Z,3332.00
2019-04-22T13:54:48.409Z,3352.00
2019-04-22T13:55:41.734Z,3360.00
2019-04-22T13:56:32.844Z,3360.00
2019-04-22T13:57:32.613Z,3400.00
2019-04-22T13:58:24.347Z,3372.00
2019-04-22T13:59:23.016Z,3332.00
2019-04-22T14:00:12.220Z,3296.00